createdAt,value
2022-08-14T04:02:53.339Z,17.40
2022-08-14T04:05:23.017Z,17.44
2022-08-14T04:08:08.308Z,17.43
2022-08-14T04:10:42.419Z,17.43
2022-08-14T04:13:11.803Z,17.44
2022-08-14T04:15:56.563Z,17.44
2022-08-14T04:18:34.234Z,17.43
2022-08-14T04:21:04.395Z,17.37
2022-08-14T04:23:35.371Z,17.39
2022-08-14T04:26:08.347Z,17.40
2022-08-14T04:29:07.327Z,17.29
2022-08-14T04:33:00.365Z,17.23
2022-08-14T04:34:27.286Z,17.30
2022-08-14T04:37:10.671Z,17.33
2022-08-14T04:39:57.246Z,17.38
2022-08-14T04:42:47.120Z,17.45
2022-08-14T04:45:21.243Z,17.39
2022-08-14T04:48:03.099Z,17.34
2022-08-14T04:50:44.434Z,17.34
2022-08-14T04:53:15.683Z,17.42
2022-08-14T04:55:49.818Z,17.37
2022-08-14T04:58:32.666Z,17.52
2022-08-14T05:01:03.571Z,17.64
2022-08-14T05:03:34.385Z,17.62
2022-08-14T05:06:38.598Z,17.55
2022-08-14T05:09:00.717Z,17.62
2022-08-14T05:11:33.531Z,17.72
2022-08-14T05:14:33.155Z,17.83
2022-08-14T05:16:59.254Z,17.88
2022-08-14T05:19:32.768Z,17.91
2022-08-14T05:22:17.189Z,17.93
2022-08-14T05:24:50.497Z,18.07
2022-08-14T05:27:22.296Z,18.05
2022-08-14T05:29:53.720Z,18.14
2022-08-14T05:32:27.775Z,18.23
2022-08-14T05:34:58.927Z,18.20
2022-08-14T05:37:32.007Z,18.24
2022-08-14T05:40:02.554Z,18.22
2022-08-14T05:42:34.508Z,18.37
2022-08-14T05:45:21.486Z,18.36
2022-08-14T05:47:51.923Z,18.47
2022-08-14T05:50:21.269Z,18.59
2022-08-14T05:52:55.336Z,18.71
2022-08-14T05:55:24.915Z,18.87
2022-08-14T05:57:57.801Z,19.00
2022-08-14T06:00:34.899Z,19.02
2022-08-14T06:03:09.180Z,19.07
2022-08-14T06:05:39.112Z,19.19
2022-08-14T06:08:31.035Z,19.31
2022-08-14T06:11:06.216Z,19.38
2022-08-14T06:13:45.139Z,19.56
2022-08-14T06:16:18.229Z,19.58
2022-08-14T06:18:52.956Z,19.73
2022-08-14T06:21:23.129Z,19.87
2022-08-14T06:23:55.257Z,20.00
2022-08-14T06:26:30.347Z,20.14
2022-08-14T06:29:00.224Z,20.12
2022-08-14T06:31:29.565Z,20.23
2022-08-14T06:35:02.282Z,20.40
2022-08-14T06:36:49.837Z,20.52
2022-08-14T06:39:36.626Z,20.48
2022-08-14T06:42:07.444Z,20.62
2022-08-14T06:44:58.342Z,20.72
2022-08-14T06:47:27.900Z,20.89
2022-08-14T06:49:58.608Z,20.98
2022-08-14T06:52:28.106Z,21.15
2022-08-14T06:55:01.514Z,21.28
2022-08-14T06:57:38.912Z,21.44
2022-08-14T07:00:09.550Z,21.56
2022-08-14T07:03:05.012Z,21.79
2022-08-14T07:05:55.664Z,21.96
2022-08-14T07:08:31.265Z,22.16
2022-08-14T07:11:04.376Z,22.26
2022-08-14T07:13:34.884Z,22.43
2022-08-14T07:16:05.885Z,22.56
2022-08-14T07:18:37.627Z,22.70
2022-08-14T07:21:11.117Z,22.81
2022-08-14T07:23:44.171Z,22.86
2022-08-14T07:26:17.021Z,22.88
2022-08-14T07:28:46.710Z,23.00
2022-08-14T07:31:16.398Z,23.09
2022-08-14T07:33:50.598Z,23.18
2022-08-14T07:36:27.597Z,23.25
2022-08-14T07:39:00.772Z,23.36
2022-08-14T07:41:35.947Z,23.37
2022-08-14T07:44:29.652Z,23.49
2022-08-14T07:46:55.353Z,23.77
2022-08-14T07:49:24.965Z,23.90
2022-08-14T07:54:30.341Z,24.14
2022-08-14T07:57:11.786Z,24.24
2022-08-14T07:59:44.720Z,24.29
2022-08-14T08:02:20.566Z,24.44
2022-08-14T08:04:54.009Z,24.57
2022-08-14T08:07:24.469Z,24.71
2022-08-14T08:10:00.823Z,24.84
2022-08-14T08:12:33.762Z,24.95
2022-08-14T08:15:07.553Z,25.11
2022-08-14T08:17:42.872Z,25.25
2022-08-14T08:20:27.470Z,25.43
2022-08-14T08:23:00.467Z,25.53
2022-08-14T08:25:39.806Z,25.68
2022-08-14T08:28:22.346Z,25.85
2022-08-14T08:30:56.499Z,25.93
2022-08-14T08:33:32.245Z,26.01
2022-08-14T08:36:03.562Z,26.15
2022-08-14T08:39:18.665Z,26.24
2022-08-14T08:41:22.333Z,26.41
2022-08-14T08:43:54.322Z,26.51
2022-08-14T08:46:25.372Z,26.56
2022-08-14T08:51:30.845Z,26.75
2022-08-14T08:54:03.983Z,26.82
2022-08-14T08:56:39.497Z,26.92
2022-08-14T08:59:22.236Z,26.87
2022-08-14T09:01:57.775Z,26.80
2022-08-14T09:04:27.841Z,26.91
2022-08-14T09:07:09.270Z,27.00
2022-08-14T09:09:53.956Z,27.19
2022-08-14T09:12:32.401Z,27.22
2022-08-14T09:15:11.685Z,27.31
2022-08-14T09:17:42.696Z,27.45
2022-08-14T09:20:12.995Z,27.56
2022-08-14T09:22:48.124Z,27.60
2022-08-14T09:25:19.925Z,27.74
2022-08-14T09:28:08.480Z,27.77
2022-08-14T09:30:42.037Z,27.88
2022-08-14T09:33:24.363Z,27.99
2022-08-14T09:36:00.242Z,28.03
2022-08-14T09:38:35.419Z,28.17
2022-08-14T09:41:13.400Z,28.48
2022-08-14T09:43:46.288Z,28.59
2022-08-14T09:46:21.297Z,28.76
2022-08-14T09:49:00.552Z,28.91
2022-08-14T09:51:33.091Z,28.99
2022-08-14T09:54:22.740Z,28.96
2022-08-14T09:56:56.665Z,28.97
2022-08-14T09:59:28.184Z,28.99
2022-08-14T10:02:01.181Z,29.06
2022-08-14T10:04:34.625Z,29.11
2022-08-14T10:07:08.460Z,29.03
2022-08-14T10:09:59.671Z,29.06
2022-08-14T10:12:45.355Z,29.10
2022-08-14T10:15:19.572Z,29.38
2022-08-14T10:17:53.389Z,29.36
2022-08-14T10:20:39.821Z,29.32
2022-08-14T10:23:16.420Z,29.28
2022-08-14T10:25:50.691Z,29.31
2022-08-14T10:28:57.438Z,29.29
2022-08-14T10:31:19.825Z,29.31
2022-08-14T10:34:05.117Z,29.42
2022-08-14T10:36:47.523Z,29.56
2022-08-14T10:39:19.612Z,29.61
2022-08-14T10:41:53.964Z,29.67
2022-08-14T10:44:29.479Z,29.71
2022-08-14T10:47:39.330Z,29.73
2022-08-14T10:50:01.895Z,29.83
2022-08-14T10:52:35.326Z,29.90
2022-08-14T10:55:09.863Z,29.99
2022-08-14T10:57:50.386Z,29.96
2022-08-14T11:00:29.889Z,29.91
2022-08-14T11:03:07.885Z,30.07
2022-08-14T11:05:47.437Z,30.25
2022-08-14T11:08:19.780Z,30.24
2022-08-14T11:10:52.833Z,30.03
2022-08-14T11:13:24.504Z,30.04
2022-08-14T11:15:55.864Z,30.21
2022-08-14T11:18:35.709Z,30.32
2022-08-14T11:21:17.047Z,30.24
2022-08-14T11:23:49.336Z,30.25
2022-08-14T11:26:24.567Z,30.35
2022-08-14T11:28:53.966Z,30.48
2022-08-14T11:31:25.688Z,30.47
2022-08-14T11:33:58.477Z,30.50
2022-08-14T11:37:02.894Z,30.63
2022-08-14T11:39:33.769Z,30.66
2022-08-14T11:42:56.106Z,30.76
2022-08-14T11:44:59.892Z,30.85
2022-08-14T11:47:35.635Z,30.84
2022-08-14T11:50:34.072Z,30.74
2022-08-14T11:53:10.164Z,30.89
2022-08-14T11:55:43.083Z,30.89
2022-08-14T11:58:15.725Z,30.83
2022-08-14T12:00:55.378Z,30.97
2022-08-14T12:03:51.479Z,30.96
2022-08-14T12:06:29.419Z,31.01
2022-08-14T12:09:15.253Z,31.04
2022-08-14T12:11:47.368Z,31.10
2022-08-14T12:14:30.582Z,31.15
2022-08-14T12:17:12.454Z,31.43
2022-08-14T12:19:51.033Z,31.34
2022-08-14T12:22:29.709Z,31.51
2022-08-14T12:25:06.058Z,31.46
2022-08-14T12:27:52.453Z,31.46
2022-08-14T12:30:29.421Z,31.38
2022-08-14T12:33:08.799Z,31.35
2022-08-14T12:35:42.709Z,31.35
2022-08-14T12:38:20.862Z,31.29
2022-08-14T12:40:55.982Z,31.50
2022-08-14T12:43:25.661Z,31.74
2022-08-14T12:45:57.037Z,31.87
2022-08-14T12:48:32.376Z,31.95
2022-08-14T12:51:01.975Z,31.97
2022-08-14T12:53:39.244Z,31.97
2022-08-14T12:56:22.620Z,32.02
2022-08-14T12:59:02.646Z,32.12
2022-08-14T13:01:59.590Z,32.24
2022-08-14T13:04:24.015Z,32.49
2022-08-14T13:06:54.304Z,32.74
2022-08-14T13:09:36.714Z,32.70
2022-08-14T13:12:32.349Z,32.69
2022-08-14T13:15:01.424Z,32.71
2022-08-14T13:17:42.527Z,32.84
2022-08-14T13:20:23.532Z,32.97
2022-08-14T13:22:56.132Z,33.07
2022-08-14T13:25:27.681Z,33.30
2022-08-14T13:28:00.453Z,33.58
2022-08-14T13:30:30.151Z,33.64
2022-08-14T13:33:00.763Z,33.85
2022-08-14T13:35:30.648Z,33.95
2022-08-14T13:38:01.823Z,33.87
2022-08-14T13:40:31.599Z,33.87
2022-08-14T13:43:04.869Z,34.00
2022-08-14T13:46:00.623Z,34.06
2022-08-14T13:48:32.241Z,33.76
2022-08-14T13:51:08.056Z,33.52
2022-08-14T13:54:08.347Z,33.45
2022-08-14T13:56:40.611Z,33.74
2022-08-14T13:59:13.080Z,33.94
2022-08-14T14:01:51.753Z,34.00
2022-08-14T14:04:21.591Z,34.16
2022-08-14T14:06:52.713Z,34.19
2022-08-14T14:09:32.541Z,34.18
2022-08-14T14:12:37.510Z,33.94
2022-08-14T14:15:04.994Z,33.95
2022-08-14T14:17:35.145Z,33.90
2022-08-14T14:20:07.166Z,33.86
2022-08-14T14:23:02.437Z,33.98
2022-08-14T14:25:45.796Z,34.19
2022-08-14T14:28:16.984Z,34.22
2022-08-14T14:31:01.084Z,34.11
2022-08-14T14:33:47.866Z,33.88
2022-08-14T14:36:21.488Z,33.83
2022-08-14T14:38:54.130Z,33.74
2022-08-14T14:41:25.095Z,33.70
2022-08-14T14:43:57.457Z,33.59
2022-08-14T14:46:36.333Z,33.73
2022-08-14T14:49:08.652Z,33.64
2022-08-14T14:51:44.534Z,33.51
2022-08-14T14:54:17.726Z,33.39
2022-08-14T14:56:53.795Z,33.27
2022-08-14T14:59:23.660Z,33.15
2022-08-14T15:01:57.060Z,33.22
2022-08-14T15:04:26.480Z,33.05
2022-08-14T15:06:56.038Z,33.10
2022-08-14T15:09:25.439Z,33.00
2022-08-14T15:11:54.971Z,32.97
2022-08-14T15:14:55.197Z,32.77
2022-08-14T15:17:17.189Z,32.74
2022-08-14T15:19:56.369Z,32.71
2022-08-14T15:22:29.039Z,32.61
2022-08-14T15:24:59.897Z,32.62
2022-08-14T15:27:31.634Z,32.66
2022-08-14T15:30:01.575Z,32.74
2022-08-14T15:32:34.628Z,32.96
2022-08-14T15:35:04.857Z,33.00
2022-08-14T15:37:42.274Z,33.14
2022-08-14T15:40:22.005Z,33.32
2022-08-14T15:42:52.077Z,33.63
2022-08-14T15:45:22.923Z,33.63
2022-08-14T15:47:56.501Z,33.41
2022-08-14T15:50:29.342Z,33.37
2022-08-14T15:52:59.046Z,33.47
2022-08-14T15:55:31.040Z,33.65
2022-08-14T15:58:03.488Z,33.49
2022-08-14T16:00:49.853Z,33.24
2022-08-14T16:03:24.839Z,32.97
2022-08-14T16:05:57.794Z,32.86
2022-08-14T16:08:30.028Z,32.85
2022-08-14T16:11:00.748Z,32.94
2022-08-14T16:13:42.067Z,32.90
2022-08-14T16:16:50.792Z,32.90
2022-08-14T16:19:09.603Z,32.97
2022-08-14T16:22:02.213Z,32.85
2022-08-14T16:24:33.464Z,32.90
2022-08-14T16:27:03.524Z,32.94
2022-08-14T16:29:35.794Z,32.87
2022-08-14T16:32:32.613Z,33.04
2022-08-14T16:34:57.489Z,33.06
2022-08-14T16:37:30.436Z,32.81
2022-08-14T16:40:01.263Z,32.64
2022-08-14T16:42:39.358Z,32.57
2022-08-14T16:45:26.374Z,32.49
2022-08-14T16:47:56.717Z,32.41
2022-08-14T16:50:40.691Z,32.25
2022-08-14T16:53:17.863Z,32.18
2022-08-14T16:55:53.584Z,32.06
2022-08-14T16:58:30.430Z,31.95
2022-08-14T17:01:22.985Z,31.82
2022-08-14T17:03:56.648Z,31.77
2022-08-14T17:06:43.013Z,31.72
2022-08-14T17:09:29.860Z,31.62
2022-08-14T17:12:07.572Z,31.59
2022-08-14T17:14:52.542Z,31.49
2022-08-14T17:17:22.488Z,31.41
2022-08-14T17:19:56.031Z,31.40
2022-08-14T17:22:26.932Z,31.33
2022-08-14T17:25:03.647Z,31.29
2022-08-14T17:27:36.072Z,31.20
2022-08-14T17:30:07.052Z,31.14
2022-08-14T17:32:59.876Z,31.09
2022-08-14T17:35:57.973Z,31.04
2022-08-14T17:38:39.359Z,30.98
2022-08-14T17:41:27.213Z,30.95
2022-08-14T17:44:20.235Z,30.98
2022-08-14T17:46:55.323Z,30.99
2022-08-14T17:49:28.378Z,30.94
2022-08-14T17:52:07.646Z,30.82
2022-08-14T17:54:47.577Z,30.75
2022-08-14T17:57:24.423Z,30.67
2022-08-14T18:00:01.721Z,30.49
2022-08-14T18:02:35.492Z,30.41
2022-08-14T18:05:04.892Z,30.33
2022-08-14T18:07:59.832Z,30.26
2022-08-14T18:10:51.714Z,30.19
2022-08-14T18:13:17.402Z,30.09
2022-08-14T18:15:51.260Z,29.88
2022-08-14T18:18:22.429Z,29.65
2022-08-14T18:21:41.537Z,29.46
2022-08-14T18:23:46.118Z,29.23
2022-08-14T18:26:37.642Z,29.05
2022-08-14T18:29:14.732Z,28.85
2022-08-14T18:31:47.912Z,28.75
2022-08-14T18:34:32.234Z,28.68
2022-08-14T18:37:14.421Z,28.54
2022-08-14T18:40:03.567Z,28.37
2022-08-14T18:42:47.286Z,28.17
2022-08-14T18:45:18.742Z,28.12
2022-08-14T18:48:15.854Z,28.05
2022-08-14T18:50:52.249Z,27.98
2022-08-14T18:53:24.935Z,27.90
2022-08-14T18:55:56.047Z,27.88
2022-08-14T18:58:34.099Z,27.82
2022-08-14T19:01:06.358Z,27.76
2022-08-14T19:03:50.921Z,27.71
2022-08-14T19:06:38.238Z,27.67
2022-08-14T19:09:07.768Z,27.61
2022-08-14T19:11:50.449Z,27.55
2022-08-14T19:14:40.839Z,27.47
2022-08-14T19:17:42.257Z,27.38
2022-08-14T19:20:12.307Z,27.31
2022-08-14T19:22:44.669Z,27.35
2022-08-14T19:25:15.122Z,27.35
2022-08-14T19:27:46.538Z,27.30
2022-08-14T19:30:23.392Z,27.27
2022-08-14T19:32:56.149Z,27.24
2022-08-14T19:35:55.884Z,27.19
2022-08-14T19:38:44.883Z,27.14
2022-08-14T19:41:19.382Z,27.08
2022-08-14T19:43:55.623Z,27.06
2022-08-14T19:46:37.615Z,27.02
2022-08-14T19:49:09.317Z,26.99
2022-08-14T19:51:45.757Z,26.92
2022-08-14T19:54:19.091Z,26.90
2022-08-14T19:56:51.375Z,26.92
2022-08-14T19:59:21.977Z,26.96
2022-08-14T20:01:53.110Z,26.93
2022-08-14T20:04:46.353Z,26.94
2022-08-14T20:07:59.327Z,26.94
2022-08-14T20:11:08.564Z,26.91
2022-08-14T20:13:32.734Z,26.98
2022-08-14T20:16:12.565Z,26.93
2022-08-14T20:18:52.053Z,26.89
2022-08-14T20:21:21.861Z,26.87
2022-08-14T20:23:51.359Z,26.84
2022-08-14T20:26:30.463Z,26.82
2022-08-14T20:29:07.291Z,26.81
2022-08-14T20:31:38.622Z,26.79
2022-08-14T20:34:18.566Z,26.77
2022-08-14T20:37:02.906Z,26.73
2022-08-14T20:39:36.072Z,26.63
2022-08-14T20:42:23.736Z,26.63
2022-08-14T20:45:13.398Z,26.49
2022-08-14T20:47:48.238Z,26.43
2022-08-14T20:50:28.719Z,26.38
2022-08-14T20:53:00.252Z,26.29
2022-08-14T20:55:32.498Z,26.26
2022-08-14T20:58:09.829Z,26.14
2022-08-14T21:00:52.523Z,26.05
2022-08-14T21:03:57.145Z,25.98
2022-08-14T21:06:29.508Z,25.91
2022-08-14T21:09:02.195Z,25.84
2022-08-14T21:11:32.328Z,25.80
2022-08-14T21:14:20.876Z,25.81
2022-08-14T21:16:58.314Z,25.72
2022-08-14T21:19:30.909Z,25.59
2022-08-14T21:22:01.947Z,25.58
2022-08-14T21:24:39.927Z,25.52
2022-08-14T21:27:20.424Z,25.41
2022-08-14T21:29:55.167Z,25.39
2022-08-14T21:32:50.299Z,25.38
2022-08-14T21:35:24.386Z,25.39
2022-08-14T21:37:54.018Z,25.31
2022-08-14T21:40:42.572Z,25.32
2022-08-14T21:43:18.503Z,25.36
2022-08-14T21:45:53.799Z,25.36
2022-08-14T21:48:25.211Z,25.29
2022-08-14T21:51:01.641Z,25.23
2022-08-14T21:53:58.562Z,25.28
2022-08-14T21:56:37.304Z,25.22
2022-08-14T21:59:09.926Z,25.16
2022-08-14T22:02:01.440Z,25.12
2022-08-14T22:04:34.477Z,25.16
2022-08-14T22:07:16.843Z,25.19
2022-08-14T22:09:55.205Z,25.20
2022-08-14T22:12:58.484Z,25.23
2022-08-14T22:15:16.458Z,25.20
2022-08-14T22:17:52.247Z,25.25
2022-08-14T22:20:22.895Z,25.25
